Ana Sayfa
METAR-TAF:

METAR-TAF

Havaalanları :

Kahire Uluslararası Havalimanı

Kahire, Mısır

Enlem: 30-08N, Boylam: 031-24E, yükseklik: 64 m

Güncel hava durumu gözlemi

Rapor saat 12:30 UTC de 31 dakika önce yapıldı.
Rüzgar kuzeybatıdan 3 kt
Sıcaklık 29°C
Nem 40%
Basınç 1012 hPa
Görüş mesafesi: 6000 m
2500 ft yükseklikte az bulutlu

METAR: HECA 191230Z 31003KT 6000 FEW025 29/14 Q1012 NOSIG

Saat: 15:01 (13:01 UTC)

Tahmin

Rapor saat 11:00 UTC de 2 saat ve 1 dakika önce yapıldı.
Ayın 19'si saat 12 UTC'den ayın 20'si saat 18 UTC'ye kadar geçerli Tahmin
Rüzgar kuzey/kuzeydoğudan 7 kt
Görüş mesafesi 10 km veya daha fazla
2500 ft yükseklikte az bulutlu
Geçici
ayın 20'si saat 03 UTC'den ayın 20'si saat 06 UTC'ye kadar
Rüzgar değişken yönden 3 kt
Görüş mesafesi: 3000 m
Toz Pusu

TAF: HECA 191100Z 1912/2018 02007KT 9999 FEW025 TEMPO 2003/2006 VRB03KT 3000 HZ NSC

4.000'den fazla havaalanı için hava durumu gözlemleri ve tahminleri (METAR ve TAF raporları).

Kullanılabilir istasyonlar harita üzerinde sarı ve kırmızı noktalarla gösterilir.

İstasyonun adını görmek için fareyi noktanın üzerinde gezdirin.

Sonrasında hava gözlem ve tahminlerini görmek için tıklayın.

Haritayı değiştirmek için: yaklaştırmak için siyah artı işaretli yeşil düğmeye ve uzaklaştırmak için de eksi işaretli düğmeye hızla tıklayın; bitişik haritalar için yeşil okları kullanın.


METAR-TAF: